• pl
  • eng

Awiacja
NEWS
last updated: 12.09.2019 14:49<\/div>
Dear users,
We would like to inform you that from September 2nd a test form of the GAFOR forecast is available on our webpage. Please send your comments and suggestions to gafor@imgw.pl that will contribute to product development.
TAF FT 01:30 22.09.2019
  • WIND
  • SIGNIFICANT EURO
  • SIGNIFICANT
  • SIGMET
  • AIRMET
  • TAF FC
  • TAF FT
  • METAR GG30
  • METAR GG00


TAF EPBY 212330Z 2200/2224 VRB02KT CAVOK
BECMG 2200/2202 2000 BR
TEMPO 2200/2206 0600 FG BKN002
BECMG 2206/2209 CAVOK
PROB40 2221/2224 3000 BR=

TAF EPGD 212330Z 2200/2224 26008KT CAVOK
BECMG 2200/2202 3000 BR
TEMPO 2200/2208 1200 BR BKN002
PROB40 2200/2207 0500 FG OVC001
BECMG 2208/2210 CAVOK=

TAF EPKK 212330Z 2200/2224 VRB02KT CAVOK
PROB30 2202/2206 4000 BR=

TAF EPKT 212330Z 2200/2224 21005KT CAVOK=

TAF EPLL 212330Z 2200/2224 VRB02KT 3000 BR NSC
TEMPO 2200/2205 1500 BR
PROB40 2200/2205 0600 FG BKN002
BECMG 2205/2207 CAVOK
PROB40 2221/2224 4000 BR=

TAF EPMO 212330Z 2200/2224 24004KT 4000 BR NSC
TEMPO 2200/2207 2000 BR
PROB40 2200/2206 0800 FG BKN002
BECMG 2206/2208 CAVOK=

TAF EPPO 212330Z 2200/2224 VRB02KT CAVOK
TEMPO 2200/2206 3000 BR
BECMG 2206/2209 15010KT=

TAF EPRZ 212330Z 2200/2224 21005KT CAVOK=

TAF AMD EPSC 220000Z 2200/2224 12003KT 9999 NSC
TEMPO 2200/2206 3000 BR
PROB40 TEMPO 2200/2205 0600 FG OVC001=

TAF EPWA 212330Z 2200/2224 25004KT CAVOK
TEMPO 2200/2206 4000 BR
PROB40 TEMPO 2200/2206 1300 BR
PROB30 2201/2205 0600 FG OVC001=

TAF EPWR 212330Z 2200/2224 VRB02KT CAVOK
BECMG 2205/2207 18010KT=
Awiacja.imgw.pl jest pogodowym serwisem informacyjnym
Instytutu Meteorologii i Gospodarki Wodnej Państwowego Instytutu Badawczego.
Copyright IMGW PIB 2009-2011© Wszelkie prawa zastrzeżone.